Time;durP1;ratioP1;P1;durP2;ratioP2;P2;SDS_P1;SDS_P2;PMS_P1;PMS_P2;Temp;Humidity;BMP_temperature;BMP_pressure;BME280_temperature;BME280_humidity;BME280_pressure;Samples;Min_cycle;Max_cycle;Signal;HPM_P1;HPM_P2
2024/04/11 00:01:13;;;;;;;4.90;1.48;;;;;;;;;;6222735;26;20049;-66
2024/04/11 00:04:04;;;;;;;2.20;1.52;;;;;;;;;;6219691;26;20005;-66
2024/04/11 00:06:55;;;;;;;3.00;1.70;;;;;;;;;;6228830;26;20540;-66
2024/04/11 00:09:46;;;;;;;2.97;1.88;;;;;;;;;;6188693;26;20009;-66
2024/04/11 00:12:37;;;;;;;1.42;1.33;;;;;;;;;;6188316;26;20778;-66
2024/04/11 00:15:28;;;;;;;3.53;1.70;;;;;;;;;;6187093;26;20013;-66
2024/04/11 00:18:22;;;;;;;1.50;0.75;;;;;;;;;;6187894;26;20033;-66
2024/04/11 00:21:13;;;;;;;2.10;1.38;;;;;;;;;;6187611;26;20016;-66
2024/04/11 00:24:04;;;;;;;2.72;2.00;;;;;;;;;;6188145;26;20006;-66
2024/04/11 00:26:55;;;;;;;2.42;1.40;;;;;;;;;;6188793;26;20014;-66
2024/04/11 00:29:46;;;;;;;3.13;1.77;;;;;;;;;;6187625;26;20125;-66
2024/04/11 00:32:37;;;;;;;2.67;1.90;;;;;;;;;;6188004;26;20088;-66
2024/04/11 00:35:28;;;;;;;3.33;1.75;;;;;;;;;;6188496;26;20390;-66
2024/04/11 00:38:20;;;;;;;2.15;1.55;;;;;;;;;;6187250;26;20005;-66
2024/04/11 00:41:11;;;;;;;1.02;0.90;;;;;;;;;;6188195;26;20015;-66
2024/04/11 00:44:02;;;;;;;2.33;1.27;;;;;;;;;;6187600;26;20009;-66
2024/04/11 00:46:55;;;;;;;1.65;1.38;;;;;;;;;;6188652;26;20011;-66
2024/04/11 00:49:47;;;;;;;1.83;1.55;;;;;;;;;;6187596;26;20012;-66
2024/04/11 00:52:43;;;;;;;2.53;1.42;;;;;;;;;;6185816;26;20017;-66
2024/04/11 00:55:37;;;;;;;3.95;1.80;;;;;;;;;;6186628;26;20021;-66
2024/04/11 00:58:29;;;;;;;1.30;1.20;;;;;;;;;;6186789;26;20013;-66
2024/04/11 01:01:20;;;;;;;1.13;0.90;;;;;;;;;;6186462;26;20016;-66
2024/04/11 01:04:11;;;;;;;1.30;1.20;;;;;;;;;;6210715;26;20490;-66
2024/04/11 01:07:11;;;;;;;1.23;1.13;;;;;;;;;;6227859;26;20483;-66
2024/04/11 01:10:07;;;;;;;1.17;1.08;;;;;;;;;;6224720;26;20462;-66
2024/04/11 01:12:58;;;;;;;1.48;1.35;;;;;;;;;;6253504;26;20019;-66
2024/04/11 01:15:49;;;;;;;3.55;1.42;;;;;;;;;;6227815;26;20023;-65
2024/04/11 01:18:40;;;;;;;1.08;0.98;;;;;;;;;;6225051;26;20024;-66
2024/04/11 01:21:31;;;;;;;4.82;1.27;;;;;;;;;;6254735;26;20071;-65
2024/04/11 01:24:22;;;;;;;1.40;1.17;;;;;;;;;;6227316;26;20037;-65
2024/04/11 01:27:16;;;;;;;1.23;1.13;;;;;;;;;;6227472;26;20770;-66
2024/04/11 01:30:08;;;;;;;2.35;1.83;;;;;;;;;;6194548;26;20444;-65
2024/04/11 01:33:09;;;;;;;1.73;0.95;;;;;;;;;;6189994;26;20017;-66
2024/04/11 01:36:01;;;;;;;1.25;1.17;;;;;;;;;;6191051;26;20005;-66
2024/04/11 01:38:52;;;;;;;1.33;1.20;;;;;;;;;;6190327;26;20005;-66
2024/04/11 01:41:43;;;;;;;2.17;1.35;;;;;;;;;;6218038;26;20016;-65
2024/04/11 01:44:34;;;;;;;2.60;1.45;;;;;;;;;;6220773;26;20005;-66
2024/04/11 01:47:25;;;;;;;2.03;1.23;;;;;;;;;;6231076;26;20015;-65
2024/04/11 01:50:17;;;;;;;1.45;1.35;;;;;;;;;;6190464;26;20016;-66
2024/04/11 01:53:08;;;;;;;1.52;1.17;;;;;;;;;;6222820;26;20019;-66
2024/04/11 01:56:09;;;;;;;3.90;1.83;;;;;;;;;;6231244;26;20020;-66
2024/04/11 01:59:08;;;;;;;3.22;2.08;;;;;;;;;;6219011;26;20014;-65
2024/04/11 02:02:01;;;;;;;2.90;1.92;;;;;;;;;;6190913;26;20033;-66
2024/04/11 02:04:54;;;;;;;1.23;1.10;;;;;;;;;;6190624;26;20468;-66
2024/04/11 02:07:45;;;;;;;1.25;1.15;;;;;;;;;;6190535;26;20024;-66
2024/04/11 02:10:36;;;;;;;2.78;1.63;;;;;;;;;;6223203;26;20041;-66
2024/04/11 02:13:27;;;;;;;1.73;1.50;;;;;;;;;;6215740;26;20075;-66
2024/04/11 02:16:19;;;;;;;1.55;1.10;;;;;;;;;;6190459;26;20006;-66
2024/04/11 02:19:12;;;;;;;1.85;0.98;;;;;;;;;;6203853;26;20078;-66
2024/04/11 02:22:07;;;;;;;1.70;1.35;;;;;;;;;;6190422;26;20014;-67
2024/04/11 02:24:58;;;;;;;2.38;1.67;;;;;;;;;;6190719;26;20012;-66
2024/04/11 02:27:49;;;;;;;7.15;1.90;;;;;;;;;;6189703;26;20002;-66
2024/04/11 02:30:40;;;;;;;1.60;1.50;;;;;;;;;;6189980;26;20006;-66
2024/04/11 02:33:35;;;;;;;3.30;1.80;;;;;;;;;;6190088;26;20006;-66
2024/04/11 02:36:29;;;;;;;4.10;2.22;;;;;;;;;;6190408;26;20030;-66
2024/04/11 02:39:21;;;;;;;2.60;1.65;;;;;;;;;;6189652;26;20211;-66
2024/04/11 02:42:12;;;;;;;1.73;1.63;;;;;;;;;;6190363;26;20033;-66
2024/04/11 02:45:04;;;;;;;3.22;1.30;;;;;;;;;;6189162;26;20021;-66
2024/04/11 02:47:57;;;;;;;2.88;1.70;;;;;;;;;;6190300;26;20041;-66
2024/04/11 02:50:49;;;;;;;2.05;1.77;;;;;;;;;;6189540;26;20514;-66
2024/04/11 02:53:41;;;;;;;1.88;1.50;;;;;;;;;;6189787;26;20083;-64
2024/04/11 02:56:32;;;;;;;3.25;2.25;;;;;;;;;;6190000;26;20017;-64
2024/04/11 02:59:23;;;;;;;2.85;2.15;;;;;;;;;;6188921;26;20005;-64
2024/04/11 03:02:14;;;;;;;2.20;2.00;;;;;;;;;;6189906;26;20400;-64
2024/04/11 03:05:06;;;;;;;1.67;1.52;;;;;;;;;;6189647;26;20452;-64
2024/04/11 03:07:57;;;;;;;5.75;2.15;;;;;;;;;;6189845;26;20020;-64
2024/04/11 03:10:48;;;;;;;5.60;3.55;;;;;;;;;;6215104;26;20013;-64
2024/04/11 03:13:39;;;;;;;33.70;14.93;;;;;;;;;;6236999;26;20005;-64
2024/04/11 03:16:30;;;;;;;28.40;9.70;;;;;;;;;;6216383;26;20060;-64
2024/04/11 03:19:22;;;;;;;7.85;3.92;;;;;;;;;;6192649;26;20049;-64
2024/04/11 03:22:14;;;;;;;4.00;1.65;;;;;;;;;;6229593;26;20013;-64
2024/04/11 03:25:05;;;;;;;1.45;1.33;;;;;;;;;;6229423;26;20017;-64
2024/04/11 03:27:56;;;;;;;4.50;2.20;;;;;;;;;;6229465;26;20005;-64
2024/04/11 03:31:00;;;;;;;3.65;2.20;;;;;;;;;;6207059;26;20329;-64
2024/04/11 03:33:51;;;;;;;7.55;3.08;;;;;;;;;;6189234;26;20030;-64
2024/04/11 03:36:44;;;;;;;2.22;2.03;;;;;;;;;;6189335;26;20329;-64
2024/04/11 03:39:35;;;;;;;2.75;1.92;;;;;;;;;;6188758;26;20005;-64
2024/04/11 03:42:27;;;;;;;5.47;1.70;;;;;;;;;;6188201;26;20340;-64
2024/04/11 03:45:22;;;;;;;12.57;1.63;;;;;;;;;;6189475;26;20435;-64
2024/04/11 03:48:14;;;;;;;3.30;1.75;;;;;;;;;;6187367;26;20015;-64
2024/04/11 03:51:13;;;;;;;2.05;1.42;;;;;;;;;;6188636;26;20002;-64
2024/04/11 03:54:06;;;;;;;1.85;1.42;;;;;;;;;;6188821;26;20005;-64
2024/04/11 03:56:58;;;;;;;7.53;1.98;;;;;;;;;;6188043;26;20412;-64
2024/04/11 03:59:52;;;;;;;2.53;1.70;;;;;;;;;;6188023;26;20006;-64
2024/04/11 04:02:43;;;;;;;5.20;2.13;;;;;;;;;;6188595;26;20311;-64
2024/04/11 04:05:34;;;;;;;4.60;2.55;;;;;;;;;;6189103;26;20013;-64
2024/04/11 04:08:25;;;;;;;2.45;1.70;;;;;;;;;;6188247;26;20406;-64
2024/04/11 04:11:18;;;;;;;1.67;1.58;;;;;;;;;;6211127;26;20068;-64
2024/04/11 04:14:09;;;;;;;4.80;2.50;;;;;;;;;;6228194;26;20016;-64
2024/04/11 04:17:00;;;;;;;1.60;1.33;;;;;;;;;;6228774;26;20013;-65
2024/04/11 04:19:52;;;;;;;4.68;2.42;;;;;;;;;;6228597;26;20032;-64
2024/04/11 04:22:44;;;;;;;6.07;3.58;;;;;;;;;;6228509;26;20018;-65
2024/04/11 04:25:38;;;;;;;4.32;1.90;;;;;;;;;;6228856;26;20036;-65
2024/04/11 04:28:39;;;;;;;3.30;1.90;;;;;;;;;;6226263;26;20078;-65
2024/04/11 04:31:32;;;;;;;2.15;1.80;;;;;;;;;;6205691;26;20006;-65
2024/04/11 04:34:25;;;;;;;4.85;2.08;;;;;;;;;;6188052;26;20005;-65
2024/04/11 04:37:17;;;;;;;2.00;1.48;;;;;;;;;;6188743;26;20002;-65
2024/04/11 04:40:10;;;;;;;9.27;2.72;;;;;;;;;;6187711;26;20020;-65
2024/04/11 04:43:02;;;;;;;3.53;2.22;;;;;;;;;;6187710;26;20015;-66
2024/04/11 04:45:57;;;;;;;3.53;2.40;;;;;;;;;;6188816;26;20005;-66
2024/04/11 04:48:49;;;;;;;2.83;1.85;;;;;;;;;;6205312;26;20332;-66
2024/04/11 04:51:43;;;;;;;1.95;1.67;;;;;;;;;;6227729;26;20342;-66
2024/04/11 04:54:34;;;;;;;1.60;1.50;;;;;;;;;;6227975;26;20013;-66
2024/04/11 04:57:26;;;;;;;5.32;2.58;;;;;;;;;;6227883;26;20012;-66
2024/04/11 05:00:17;;;;;;;4.18;2.40;;;;;;;;;;6227775;26;20004;-66
2024/04/11 05:03:09;;;;;;;1.70;1.58;;;;;;;;;;6254866;26;20015;-66
2024/04/11 05:06:04;;;;;;;3.47;2.60;;;;;;;;;;6228315;26;20013;-66
2024/04/11 05:08:55;;;;;;;5.88;2.13;;;;;;;;;;6231597;26;20044;-66
2024/04/11 05:11:46;;;;;;;1.63;1.35;;;;;;;;;;6229661;26;20525;-66
2024/04/11 05:14:40;;;;;;;4.80;1.45;;;;;;;;;;6198172;26;20005;-66
2024/04/11 05:17:32;;;;;;;5.18;1.90;;;;;;;;;;6191442;26;20006;-66
2024/04/11 05:20:27;;;;;;;0.98;0.93;;;;;;;;;;6191600;26;20093;-66
2024/04/11 05:23:19;;;;;;;1.67;1.48;;;;;;;;;;6191345;26;20022;-66
2024/04/11 05:26:14;;;;;;;2.63;1.50;;;;;;;;;;6191387;26;20005;-66
2024/04/11 05:29:07;;;;;;;2.47;1.35;;;;;;;;;;6214562;26;20001;-66
2024/04/11 05:32:04;;;;;;;2.08;1.77;;;;;;;;;;6211408;26;20005;-66
2024/04/11 05:34:55;;;;;;;8.82;2.08;;;;;;;;;;6191047;26;20019;-65
2024/04/11 05:37:45;;;;;;;5.93;1.27;;;;;;;;;;6190814;26;20020;-66
2024/04/11 05:40:36;;;;;;;3.78;2.35;;;;;;;;;;6191338;26;20048;-66
2024/04/11 05:43:27;;;;;;;4.28;1.85;;;;;;;;;;6211291;26;20769;-66
2024/04/11 05:46:30;;;;;;;1.50;1.30;;;;;;;;;;6191187;26;20009;-66
2024/04/11 05:49:22;;;;;;;2.20;1.50;;;;;;;;;;6190755;26;20030;-66
2024/04/11 05:52:13;;;;;;;5.82;3.10;;;;;;;;;;6210303;26;20005;-66
2024/04/11 05:55:04;;;;;;;1.75;1.45;;;;;;;;;;6230932;26;20013;-66
2024/04/11 05:57:55;;;;;;;19.13;4.93;;;;;;;;;;6251495;26;20447;-66
2024/04/11 06:00:49;;;;;;;4.72;3.78;;;;;;;;;;6191128;26;20020;-66
2024/04/11 06:03:46;;;;;;;2.97;2.13;;;;;;;;;;6229666;26;20439;-66
2024/04/11 06:06:38;;;;;;;3.28;1.50;;;;;;;;;;6231233;26;20033;-66
2024/04/11 06:09:29;;;;;;;3.33;2.53;;;;;;;;;;6230750;26;20016;-66
2024/04/11 06:12:20;;;;;;;4.30;2.25;;;;;;;;;;6230043;26;20447;-64
2024/04/11 06:15:11;;;;;;;1.42;1.33;;;;;;;;;;6230651;26;20005;-67
2024/04/11 06:18:09;;;;;;;6.00;1.60;;;;;;;;;;6229705;26;20019;-67
2024/04/11 06:21:04;;;;;;;1.50;1.25;;;;;;;;;;6231048;26;20015;-67
2024/04/11 06:23:55;;;;;;;2.88;1.83;;;;;;;;;;6190958;26;20018;-66
2024/04/11 06:26:46;;;;;;;1.02;0.85;;;;;;;;;;6190604;26;20013;-67
2024/04/11 06:29:38;;;;;;;3.70;1.60;;;;;;;;;;6188394;26;20041;-67
2024/04/11 06:32:31;;;;;;;2.00;1.08;;;;;;;;;;6189490;26;20080;-67
2024/04/11 06:35:22;;;;;;;2.95;1.40;;;;;;;;;;6189017;26;20015;-67
2024/04/11 06:38:15;;;;;;;1.80;1.45;;;;;;;;;;6190038;26;20005;-67
2024/04/11 06:41:08;;;;;;;1.13;0.90;;;;;;;;;;6190528;26;20029;-67
2024/04/11 06:44:00;;;;;;;1.70;1.30;;;;;;;;;;6189884;26;20013;-67
2024/04/11 06:46:58;;;;;;;1.10;1.00;;;;;;;;;;6190484;26;20041;-67
2024/04/11 06:49:49;;;;;;;8.07;1.33;;;;;;;;;;6189870;26;20080;-67
2024/04/11 06:52:39;;;;;;;1.60;1.17;;;;;;;;;;6201314;26;20048;-67
2024/04/11 06:55:32;;;;;;;3.83;2.25;;;;;;;;;;6190513;26;20009;-67
2024/04/11 06:58:24;;;;;;;1.70;1.20;;;;;;;;;;6189010;26;20006;-67
2024/04/11 07:01:15;;;;;;;1.83;1.52;;;;;;;;;;6188568;26;20048;-64
2024/04/11 07:04:09;;;;;;;2.33;1.80;;;;;;;;;;6189506;26;20440;-64
2024/04/11 07:07:08;;;;;;;2.67;1.23;;;;;;;;;;6190462;26;20072;-64
2024/04/11 07:09:59;;;;;;;0.95;0.85;;;;;;;;;;6190073;26;20006;-65
2024/04/11 07:12:52;;;;;;;3.22;1.50;;;;;;;;;;6188470;26;20005;-65
2024/04/11 07:15:43;;;;;;;2.55;1.23;;;;;;;;;;6190158;26;20009;-65
2024/04/11 07:18:44;;;;;;;2.35;1.58;;;;;;;;;;6189568;26;20020;-65
2024/04/11 07:21:38;;;;;;;1.52;1.25;;;;;;;;;;6190412;26;20014;-65
2024/04/11 07:24:29;;;;;;;2.45;1.33;;;;;;;;;;6226667;26;20036;-65
2024/04/11 07:27:21;;;;;;;3.13;1.23;;;;;;;;;;6229523;26;20005;-65
2024/04/11 07:30:12;;;;;;;2.00;1.67;;;;;;;;;;6229244;26;20020;-65
2024/04/11 07:33:06;;;;;;;1.55;1.17;;;;;;;;;;6228529;26;20005;-65
2024/04/11 07:35:58;;;;;;;6.13;2.85;;;;;;;;;;6230318;26;20005;-64
2024/04/11 07:38:49;;;;;;;2.45;0.90;;;;;;;;;;6229221;26;20040;-65
2024/04/11 07:41:47;;;;;;;3.90;1.77;;;;;;;;;;6229807;26;20409;-65
2024/04/11 07:44:38;;;;;;;5.22;2.38;;;;;;;;;;6228286;26;20005;-65
2024/04/11 07:47:29;;;;;;;1.88;0.95;;;;;;;;;;6229115;26;20447;-65
2024/04/11 07:50:45;;;;;;;1.50;1.25;;;;;;;;;;6229757;26;20013;-65
2024/04/11 07:53:38;;;;;;;2.50;1.85;;;;;;;;;;6228923;26;20029;-66
2024/04/11 07:56:29;;;;;;;1.95;1.40;;;;;;;;;;6229387;26;20013;-67
2024/04/11 07:59:20;;;;;;;4.97;1.65;;;;;;;;;;6228634;26;20336;-68
2024/04/11 08:02:10;;;;;;;1.33;1.23;;;;;;;;;;6229377;26;20052;-67
2024/04/11 08:05:04;;;;;;;2.05;1.52;;;;;;;;;;6228724;26;20009;-68
2024/04/11 08:07:57;;;;;;;2.10;1.17;;;;;;;;;;6229330;26;20004;-65
2024/04/11 08:10:49;;;;;;;1.65;1.27;;;;;;;;;;6229233;26;20005;-65
2024/04/11 08:13:43;;;;;;;1.30;0.93;;;;;;;;;;6227637;26;20005;-65
2024/04/11 08:16:36;;;;;;;1.75;1.33;;;;;;;;;;6228909;26;20113;-65
2024/04/11 08:19:28;;;;;;;2.00;1.80;;;;;;;;;;6228879;26;20005;-65
2024/04/11 08:22:29;;;;;;;1.60;1.23;;;;;;;;;;6228993;26;20015;-65
2024/04/11 08:25:20;;;;;;;1.35;0.98;;;;;;;;;;6188323;26;20377;-65
2024/04/11 08:28:13;;;;;;;1.75;1.10;;;;;;;;;;6187867;26;20013;-65
2024/04/11 08:31:08;;;;;;;3.75;1.58;;;;;;;;;;6188653;26;20117;-65
2024/04/11 08:33:59;;;;;;;1.20;1.10;;;;;;;;;;6188187;26;20398;-67
2024/04/11 08:36:52;;;;;;;2.00;1.38;;;;;;;;;;6188892;26;20006;-65
2024/04/11 08:39:44;;;;;;;2.47;0.90;;;;;;;;;;6215363;26;20020;-65
2024/04/11 08:42:38;;;;;;;4.95;1.23;;;;;;;;;;6186542;26;20041;-65
2024/04/11 08:45:34;;;;;;;1.42;1.10;;;;;;;;;;6188248;26;20347;-65
2024/04/11 08:48:25;;;;;;;3.60;1.02;;;;;;;;;;6214150;26;20014;-65
2024/04/11 08:51:20;;;;;;;0.63;0.63;;;;;;;;;;6188319;26;20057;-65
2024/04/11 08:54:16;;;;;;;1.05;0.63;;;;;;;;;;6187910;26;20452;-65
2024/04/11 08:57:11;;;;;;;1.13;0.60;;;;;;;;;;6188200;26;20005;-65
2024/04/11 09:00:12;;;;;;;1.20;0.93;;;;;;;;;;6187646;26;20103;-65
2024/04/11 09:03:03;;;;;;;1.67;1.30;;;;;;;;;;6187446;26;20020;-65
2024/04/11 09:05:58;;;;;;;0.98;0.88;;;;;;;;;;6188803;26;20006;-65
2024/04/11 09:08:50;;;;;;;2.53;1.50;;;;;;;;;;6204861;26;20006;-65
2024/04/11 09:11:44;;;;;;;1.40;1.08;;;;;;;;;;6190405;26;20005;-65
2024/04/11 09:14:35;;;;;;;9.07;2.50;;;;;;;;;;6187202;26;20057;-65
2024/04/11 09:17:27;;;;;;;22.70;8.80;;;;;;;;;;6187903;26;20005;-65
2024/04/11 09:20:19;;;;;;;6.13;4.05;;;;;;;;;;6203727;26;20005;-66
2024/04/11 09:23:19;;;;;;;2.05;1.30;;;;;;;;;;6254653;26;20004;-65
2024/04/11 09:26:10;;;;;;;1.95;1.20;;;;;;;;;;6228011;26;20409;-65
2024/04/11 09:29:04;;;;;;;2.17;1.23;;;;;;;;;;6227076;26;20015;-65
2024/04/11 09:31:57;;;;;;;1.52;1.27;;;;;;;;;;6227837;26;20041;-66
2024/04/11 09:34:50;;;;;;;3.80;0.85;;;;;;;;;;6227513;26;20011;-65
2024/04/11 09:37:41;;;;;;;1.35;0.82;;;;;;;;;;6225481;26;20001;-65
2024/04/11 09:40:34;;;;;;;3.35;1.95;;;;;;;;;;6238243;26;20021;-65
2024/04/11 09:43:27;;;;;;;1.45;0.93;;;;;;;;;;6184719;26;20407;-66
2024/04/11 09:46:22;;;;;;;3.75;0.70;;;;;;;;;;6185621;26;20017;-65
2024/04/11 09:49:17;;;;;;;1.52;0.80;;;;;;;;;;6187449;26;20005;-68
2024/04/11 09:52:10;;;;;;;1.27;0.85;;;;;;;;;;6187145;26;20479;-66
2024/04/11 09:55:14;;;;;;;4.47;1.30;;;;;;;;;;6215635;26;20016;-66
2024/04/11 09:58:10;;;;;;;3.00;0.75;;;;;;;;;;6190204;26;20005;-66
2024/04/11 10:01:05;;;;;;;0.80;0.70;;;;;;;;;;6210543;26;20005;-67
2024/04/11 10:04:03;;;;;;;0.70;0.65;;;;;;;;;;6237032;26;20020;-66
2024/04/11 10:06:59;;;;;;;1.33;0.90;;;;;;;;;;6191170;26;20006;-66
2024/04/11 10:09:52;;;;;;;2.92;1.15;;;;;;;;;;6191241;26;20016;-66
2024/04/11 10:12:48;;;;;;;2.03;1.10;;;;;;;;;;6257534;26;20437;-66
2024/04/11 10:15:39;;;;;;;1.45;1.02;;;;;;;;;;6229245;26;20016;-66
2024/04/11 10:18:45;;;;;;;1.48;0.50;;;;;;;;;;6230898;26;20100;-66
2024/04/11 10:21:40;;;;;;;1.58;0.73;;;;;;;;;;6230666;26;20072;-66
2024/04/11 10:24:49;;;;;;;2.53;0.93;;;;;;;;;;6230736;26;20017;-66
2024/04/11 10:27:43;;;;;;;0.87;0.80;;;;;;;;;;6230279;26;20016;-66
2024/04/11 10:30:37;;;;;;;1.20;0.88;;;;;;;;;;6230471;26;20005;-66
2024/04/11 10:33:29;;;;;;;1.98;1.38;;;;;;;;;;6230518;26;20033;-66
2024/04/11 10:36:21;;;;;;;0.60;0.55;;;;;;;;;;6230803;26;20017;-66
2024/04/11 10:39:12;;;;;;;7.32;0.88;;;;;;;;;;6230496;26;20572;-66
2024/04/11 10:42:07;;;;;;;5.07;0.75;;;;;;;;;;6230163;26;20020;-66
2024/04/11 10:44:59;;;;;;;8.88;0.70;;;;;;;;;;6230171;26;20475;-66
2024/04/11 10:47:51;;;;;;;2.80;1.00;;;;;;;;;;6230427;26;20015;-66
2024/04/11 10:50:44;;;;;;;4.97;1.15;;;;;;;;;;6229761;26;20019;-66
2024/04/11 10:53:35;;;;;;;0.93;0.52;;;;;;;;;;6230399;26;20048;-66
2024/04/11 10:56:27;;;;;;;1.60;0.98;;;;;;;;;;6230436;26;20069;-66
2024/04/11 10:59:22;;;;;;;2.53;0.95;;;;;;;;;;6229466;26;20015;-66
2024/04/11 11:02:19;;;;;;;1.63;0.73;;;;;;;;;;6202847;26;20005;-66
2024/04/11 11:05:10;;;;;;;0.85;0.63;;;;;;;;;;6189356;26;20006;-66
2024/04/11 11:08:01;;;;;;;1.27;0.80;;;;;;;;;;6189904;26;20017;-66
2024/04/11 11:10:54;;;;;;;0.73;0.70;;;;;;;;;;6190146;26;20018;-66
2024/04/11 11:13:47;;;;;;;0.35;0.25;;;;;;;;;;6189086;26;20016;-66
2024/04/11 11:16:43;;;;;;;5.05;1.48;;;;;;;;;;6189842;26;20006;-66
2024/04/11 11:19:37;;;;;;;1.30;0.55;;;;;;;;;;6189766;26;20455;-66
2024/04/11 11:22:33;;;;;;;2.13;1.08;;;;;;;;;;6216844;26;20358;-66
2024/04/11 11:25:26;;;;;;;1.08;0.43;;;;;;;;;;6189907;26;20016;-66
2024/04/11 11:28:17;;;;;;;1.05;0.38;;;;;;;;;;6203230;26;20013;-66
2024/04/11 11:31:20;;;;;;;1.35;0.93;;;;;;;;;;6229349;26;20431;-66
2024/04/11 11:34:11;;;;;;;0.93;0.52;;;;;;;;;;6229248;26;20017;-66
2024/04/11 11:37:03;;;;;;;1.20;0.70;;;;;;;;;;6189627;26;20013;-66
2024/04/11 11:39:55;;;;;;;1.58;0.50;;;;;;;;;;6222751;26;20005;-66
2024/04/11 11:42:46;;;;;;;1.58;0.98;;;;;;;;;;6204371;26;20085;-67
2024/04/11 11:46:16;;;;;;;2.03;0.95;;;;;;;;;;6229865;26;20013;-67
2024/04/11 11:48:48;;;;;;;0.40;0.40;;;;;;;;;;6210397;26;20083;-66
2024/04/11 11:51:39;;;;;;;1.13;0.85;;;;;;;;;;6189196;26;20038;-66
2024/04/11 11:54:34;;;;;;;2.08;0.55;;;;;;;;;;6188911;26;20006;-66
2024/04/11 11:57:32;;;;;;;2.30;0.73;;;;;;;;;;6188889;26;20006;-66
2024/04/11 12:00:25;;;;;;;9.60;0.82;;;;;;;;;;6189355;26;20468;-66
2024/04/11 12:03:20;;;;;;;0.70;0.60;;;;;;;;;;6188519;26;20005;-66
2024/04/11 12:06:24;;;;;;;1.65;1.00;;;;;;;;;;6214706;26;20013;-66
2024/04/11 12:09:20;;;;;;;1.30;0.65;;;;;;;;;;6256046;26;20299;-67
2024/04/11 12:12:23;;;;;;;5.70;1.27;;;;;;;;;;6228740;26;20033;-67
2024/04/11 12:15:16;;;;;;;0.73;0.60;;;;;;;;;;6188815;26;20006;-66
2024/04/11 12:18:11;;;;;;;0.50;0.50;;;;;;;;;;6196487;26;20005;-66
2024/04/11 12:21:04;;;;;;;1.27;1.00;;;;;;;;;;6228878;26;20005;-66
2024/04/11 12:23:56;;;;;;;7.82;1.65;;;;;;;;;;6190294;26;20013;-66
2024/04/11 12:26:49;;;;;;;4.43;1.20;;;;;;;;;;6207422;26;20009;-66
2024/04/11 12:29:42;;;;;;;0.75;0.70;;;;;;;;;;6194819;26;20006;-66
2024/04/11 12:32:35;;;;;;;3.55;1.20;;;;;;;;;;6195729;26;20120;-66
2024/04/11 12:35:29;;;;;;;1.55;0.77;;;;;;;;;;6186632;26;20127;-66
2024/04/11 12:38:30;;;;;;;5.25;1.15;;;;;;;;;;6188156;26;20017;-66
2024/04/11 12:41:21;;;;;;;2.95;0.57;;;;;;;;;;6186908;26;20018;-66
2024/04/11 12:44:12;;;;;;;0.95;0.85;;;;;;;;;;6193561;26;20035;-66
2024/04/11 12:47:13;;;;;;;1.63;0.82;;;;;;;;;;6188191;26;20006;-66
2024/04/11 12:50:12;;;;;;;0.75;0.60;;;;;;;;;;6184476;26;20005;-66
2024/04/11 12:53:10;;;;;;;;;;;;;;;;;;6187432;26;20352;-66
2024/04/11 12:56:06;;;;;;;1.05;0.73;;;;;;;;;;6188467;26;19934;-66
2024/04/11 12:59:05;;;;;;;1.45;0.93;;;;;;;;;;6187930;26;20452;-66
2024/04/11 13:01:57;;;;;;;1.77;0.80;;;;;;;;;;6187834;26;20360;-66
2024/04/11 13:04:53;;;;;;;1.02;0.63;;;;;;;;;;6187789;26;20019;-66
2024/04/11 13:07:46;;;;;;;2.05;0.93;;;;;;;;;;6187961;26;20041;-66
2024/04/11 13:10:37;;;;;;;16.88;1.08;;;;;;;;;;6186171;26;20005;-66
2024/04/11 13:13:29;;;;;;;7.32;0.85;;;;;;;;;;6186758;26;20041;-66
2024/04/11 13:16:21;;;;;;;1.75;0.90;;;;;;;;;;6187539;26;20024;-66
2024/04/11 13:19:19;;;;;;;4.35;1.27;;;;;;;;;;6187403;26;20340;-66
2024/04/11 13:22:12;;;;;;;2.00;0.98;;;;;;;;;;6187371;26;20665;-66
2024/04/11 13:25:10;;;;;;;4.45;1.48;;;;;;;;;;6187103;26;20018;-66
2024/04/11 13:28:01;;;;;;;0.93;0.85;;;;;;;;;;6188144;26;20048;-66
2024/04/11 13:30:55;;;;;;;1.90;1.40;;;;;;;;;;6227578;26;20005;-66
2024/04/11 13:33:48;;;;;;;1.75;1.63;;;;;;;;;;6205656;26;20017;-66
2024/04/11 13:36:41;;;;;;;1.92;1.08;;;;;;;;;;6189250;26;20013;-66
2024/04/11 13:39:43;;;;;;;2.25;1.70;;;;;;;;;;6190818;26;20005;-66
2024/04/11 13:42:34;;;;;;;2.80;1.90;;;;;;;;;;6189645;26;20033;-66
2024/04/11 13:45:26;;;;;;;1.25;1.05;;;;;;;;;;6191217;26;20082;-66
2024/04/11 13:48:17;;;;;;;0.90;0.82;;;;;;;;;;6190989;26;20005;-66
2024/04/11 13:51:15;;;;;;;4.07;1.98;;;;;;;;;;6190651;26;20020;-66
2024/04/11 13:54:07;;;;;;;4.28;1.80;;;;;;;;;;6190186;26;20005;-66
2024/04/11 13:57:09;;;;;;;2.28;1.40;;;;;;;;;;6191420;26;20080;-66
2024/04/11 14:00:09;;;;;;;7.47;2.40;;;;;;;;;;6207268;26;20024;-66
2024/04/11 14:03:00;;;;;;;6.18;1.45;;;;;;;;;;6230617;26;20439;-66
2024/04/11 14:06:00;;;;;;;3.05;1.60;;;;;;;;;;6225713;26;20017;-66
2024/04/11 14:08:53;;;;;;;6.38;2.13;;;;;;;;;;6215678;26;20045;-66
2024/04/11 14:11:48;;;;;;;10.98;3.17;;;;;;;;;;6198962;26;20083;-66
2024/04/11 14:14:39;;;;;;;3.13;2.42;;;;;;;;;;6217458;26;20370;-66
2024/04/11 14:17:33;;;;;;;7.30;2.33;;;;;;;;;;6210545;26;20005;-66
2024/04/11 14:20:31;;;;;;;11.00;3.70;;;;;;;;;;6190942;26;20083;-66
2024/04/11 14:23:44;;;;;;;;;;;;;;;;;;6230933;26;20362;-66
2024/04/11 14:26:51;;;;;;;103.95;15.45;;;;;;;;;;6230766;26;19926;-66
2024/04/11 14:29:43;;;;;;;4.78;2.13;;;;;;;;;;6230035;26;20005;-66
2024/04/11 14:39:05;;;;;;;170.73;26.45;;;;;;;;;;6209667;26;20020;-66
2024/04/11 14:41:58;;;;;;;3.53;2.20;;;;;;;;;;6230700;26;20004;-66
2024/04/11 14:44:53;;;;;;;3.42;1.40;;;;;;;;;;6202597;26;20037;-66
2024/04/11 14:47:45;;;;;;;4.15;2.47;;;;;;;;;;6190174;26;20013;-66
2024/04/11 14:50:36;;;;;;;6.03;1.77;;;;;;;;;;6190136;26;20506;-66
2024/04/11 14:53:33;;;;;;;7.18;2.20;;;;;;;;;;6189517;26;20415;-66
2024/04/11 14:56:40;;;;;;;2.88;1.70;;;;;;;;;;6190083;26;20005;-66
2024/04/11 14:59:31;;;;;;;11.27;1.27;;;;;;;;;;6195677;26;20406;-66
2024/04/11 15:02:29;;;;;;;2.05;0.93;;;;;;;;;;6222541;26;20013;-66
2024/04/11 15:05:20;;;;;;;0.52;0.52;;;;;;;;;;6189407;26;20371;-66
2024/04/11 15:08:11;;;;;;;1.85;0.65;;;;;;;;;;6202408;26;20009;-66
2024/04/11 15:11:11;;;;;;;3.28;1.75;;;;;;;;;;6215746;26;20042;-66
2024/04/11 15:14:04;;;;;;;2.25;1.20;;;;;;;;;;6203217;26;20354;-66
2024/04/11 15:17:17;;;;;;;7.20;1.92;;;;;;;;;;6197591;26;20009;-66
2024/04/11 15:20:10;;;;;;;3.28;1.17;;;;;;;;;;6188941;26;20005;-66
2024/04/11 15:23:08;;;;;;;3.72;1.88;;;;;;;;;;6195109;26;20034;-67
2024/04/11 15:26:00;;;;;;;4.32;1.40;;;;;;;;;;6189720;26;20005;-66
2024/04/11 15:28:52;;;;;;;1.75;0.82;;;;;;;;;;6188531;26;20005;-66
2024/04/11 15:32:05;;;;;;;3.47;1.95;;;;;;;;;;6189395;26;20399;-66
2024/04/11 15:35:07;;;;;;;1.67;0.98;;;;;;;;;;6222438;26;20017;-66
2024/04/11 15:41:07;;;;;;;24.85;1.77;;;;;;;;;;6229170;26;20012;-66
2024/04/11 15:44:00;;;;;;;2.10;1.25;;;;;;;;;;6228448;26;20004;-66
2024/04/11 15:46:54;;;;;;;2.95;1.98;;;;;;;;;;6229546;26;20450;-66
2024/04/11 15:49:46;;;;;;;3.15;1.40;;;;;;;;;;6229167;26;20346;-66
2024/04/11 15:52:37;;;;;;;0.85;0.80;;;;;;;;;;6228993;26;20013;-66
2024/04/11 15:55:47;;;;;;;7.40;2.85;;;;;;;;;;6227069;26;20320;-66
2024/04/11 15:58:38;;;;;;;2.15;0.95;;;;;;;;;;6210369;26;20166;-66
2024/04/11 16:01:29;;;;;;;3.03;1.23;;;;;;;;;;6189137;26;20033;-66
2024/04/11 16:04:23;;;;;;;2.58;1.00;;;;;;;;;;6188226;26;20006;-66
2024/04/11 16:07:23;;;;;;;9.45;0.63;;;;;;;;;;6189174;26;20017;-66
2024/04/11 16:10:14;;;;;;;1.42;0.90;;;;;;;;;;6188736;26;20467;-66
2024/04/11 16:13:14;;;;;;;1.23;0.95;;;;;;;;;;6198774;26;20012;-66
2024/04/11 16:16:05;;;;;;;3.33;1.73;;;;;;;;;;6228367;26;20347;-66
2024/04/11 16:18:57;;;;;;;4.55;1.23;;;;;;;;;;6228771;26;20015;-66
2024/04/11 16:21:50;;;;;;;1.75;1.38;;;;;;;;;;6228965;26;20340;-66
2024/04/11 16:24:51;;;;;;;1.88;1.00;;;;;;;;;;6255262;26;20009;-66
2024/04/11 16:27:43;;;;;;;1.15;0.80;;;;;;;;;;6228059;26;20339;-66
2024/04/11 16:31:11;;;;;;;7.18;1.33;;;;;;;;;;6228686;26;20029;-66
2024/04/11 16:33:49;;;;;;;4.93;1.52;;;;;;;;;;6226975;26;20036;-66
2024/04/11 16:36:53;;;;;;;1.42;1.17;;;;;;;;;;6228091;26;20083;-66
2024/04/11 16:39:49;;;;;;;3.97;1.77;;;;;;;;;;6228342;26;20005;-66
2024/04/11 16:42:40;;;;;;;2.20;1.40;;;;;;;;;;6227949;26;20082;-66
2024/04/11 16:45:41;;;;;;;3.58;1.95;;;;;;;;;;6227914;26;20033;-66
2024/04/11 16:48:42;;;;;;;13.60;4.07;;;;;;;;;;6228294;26;20331;-66
2024/04/11 16:51:33;;;;;;;6.80;3.58;;;;;;;;;;6228294;26;20831;-66
2024/04/11 16:54:40;;;;;;;1.77;1.45;;;;;;;;;;6226968;26;20453;-66
2024/04/11 16:57:38;;;;;;;6.47;1.40;;;;;;;;;;6227031;26;20004;-66
2024/04/11 17:00:40;;;;;;;7.43;1.67;;;;;;;;;;6226303;26;20032;-66
2024/04/11 17:03:33;;;;;;;2.80;2.33;;;;;;;;;;6251854;26;20717;-66
2024/04/11 17:06:26;;;;;;;1.80;1.42;;;;;;;;;;6196661;26;20024;-66
2024/04/11 17:09:26;;;;;;;15.20;2.25;;;;;;;;;;6205812;26;20439;-66
2024/04/11 17:12:17;;;;;;;11.25;4.28;;;;;;;;;;6228121;26;20047;-66
2024/04/11 17:15:13;;;;;;;3.28;1.70;;;;;;;;;;6200797;26;20017;-66
2024/04/11 17:21:10;;;;;;;33.83;3.53;;;;;;;;;;6187422;26;20005;-65
2024/04/11 17:24:04;;;;;;;4.10;2.20;;;;;;;;;;6187232;26;20005;-66
2024/04/11 17:26:57;;;;;;;5.47;2.72;;;;;;;;;;6187202;26;20460;-65
2024/04/11 17:30:13;;;;;;;6.13;2.80;;;;;;;;;;6186602;26;20018;-65
2024/04/11 17:33:19;;;;;;;5.28;1.55;;;;;;;;;;6186715;26;20037;-65
2024/04/11 17:42:13;;;;;;;4.82;2.72;;;;;;;;;;6187388;26;20006;-65